createdAt,value
2017-09-02T07:19:09.638Z,26.20
2017-09-02T07:21:35.681Z,14.90
2017-09-02T07:24:01.721Z,14.80
2017-09-02T07:26:27.726Z,14.80
2017-09-02T07:28:53.749Z,14.90
2017-09-02T07:31:19.778Z,15.00
2017-09-02T07:33:45.813Z,15.10
2017-09-02T07:36:11.861Z,15.20
2017-09-02T07:38:37.870Z,15.30
2017-09-02T07:41:03.910Z,15.40
2017-09-02T07:43:29.981Z,15.50
2017-09-02T07:45:56.036Z,15.60
2017-09-02T07:48:22.054Z,15.70
2017-09-02T07:50:48.082Z,15.80
2017-09-02T07:53:14.133Z,16.00
2017-09-02T07:55:40.151Z,16.10
2017-09-02T07:58:06.533Z,16.20
2017-09-02T08:00:32.577Z,16.40
2017-09-02T08:02:58.602Z,16.50
2017-09-02T08:05:24.650Z,16.50
2017-09-02T08:07:50.720Z,16.60
2017-09-02T08:10:16.885Z,16.60
2017-09-02T08:12:43.173Z,16.60
2017-09-02T08:15:09.229Z,16.70
2017-09-02T08:17:35.272Z,16.70
2017-09-02T08:20:01.829Z,16.70
2017-09-02T08:22:28.329Z,16.70
2017-09-02T08:24:54.424Z,16.60
2017-09-02T08:27:20.822Z,16.70
2017-09-02T08:29:47.022Z,16.80
2017-09-02T08:32:13.645Z,16.90
2017-09-02T08:34:40.687Z,17.10
2017-09-02T08:37:08.081Z,17.20
2017-09-02T08:39:34.199Z,17.30
2017-09-02T08:42:00.280Z,17.60
2017-09-02T08:44:26.327Z,17.90
2017-09-02T08:46:52.388Z,18.20
2017-09-02T08:49:18.437Z,18.40
2017-09-02T08:51:44.459Z,18.60
2017-09-02T08:54:10.472Z,18.80
2017-09-02T08:56:36.520Z,19.00
2017-09-02T08:59:02.546Z,19.30
2017-09-02T09:01:28.607Z,19.50
2017-09-02T09:03:55.985Z,20.10
2017-09-02T09:06:22.032Z,20.70
2017-09-02T09:08:48.181Z,21.10
2017-09-02T09:11:14.233Z,21.30
2017-09-02T09:13:40.320Z,21.70
2017-09-02T09:16:06.359Z,22.40
2017-09-02T09:18:32.385Z,22.80
2017-09-02T09:20:58.406Z,22.70
2017-09-02T09:23:24.465Z,22.30
2017-09-02T09:25:50.525Z,22.00
2017-09-02T09:28:16.541Z,21.50
2017-09-02T09:30:42.569Z,21.10
2017-09-02T09:33:08.652Z,21.50
2017-09-02T09:35:34.677Z,22.40
2017-09-02T09:38:00.724Z,23.50
2017-09-02T09:40:26.770Z,24.50
2017-09-02T09:42:52.806Z,25.20
2017-09-02T09:45:18.889Z,25.40
2017-09-02T09:47:44.961Z,25.20
2017-09-02T09:50:10.979Z,24.80
2017-09-02T09:52:37.013Z,24.60
2017-09-02T09:55:03.044Z,24.50
2017-09-02T09:57:29.113Z,24.30
2017-09-02T09:59:55.164Z,24.40
2017-09-02T10:02:21.204Z,24.40
2017-09-02T10:04:47.267Z,24.50
2017-09-02T10:07:13.309Z,24.70
2017-09-02T10:09:39.346Z,24.60
2017-09-02T10:12:05.364Z,24.50
2017-09-02T10:17:23.961Z,25.10
2017-09-02T10:19:50.001Z,25.60
2017-09-02T10:22:16.053Z,25.90
2017-09-02T10:24:42.113Z,26.50
2017-09-02T10:27:08.146Z,27.20
2017-09-02T10:29:34.165Z,27.90
2017-09-02T10:32:00.197Z,28.20
2017-09-02T10:34:26.226Z,29.30
2017-09-02T10:36:52.248Z,29.80
2017-09-02T10:39:18.258Z,30.20
2017-09-02T10:41:44.298Z,30.40
2017-09-02T10:44:10.348Z,31.20
2017-09-02T10:46:36.406Z,31.80
2017-09-02T10:49:02.431Z,32.40
2017-09-02T10:51:28.465Z,33.00
2017-09-02T10:53:54.472Z,33.40
2017-09-02T10:56:20.533Z,33.10
2017-09-02T10:58:46.557Z,32.30
2017-09-02T11:01:12.577Z,31.80
2017-09-02T11:03:38.614Z,32.00
2017-09-02T11:06:04.666Z,32.10
2017-09-02T11:08:30.691Z,32.20
2017-09-02T11:10:56.741Z,32.40
2017-09-02T11:13:22.774Z,32.60
2017-09-02T11:15:48.800Z,32.30
2017-09-02T11:18:14.839Z,31.70
2017-09-02T11:20:40.874Z,30.60
2017-09-02T11:23:06.913Z,29.10
2017-09-02T11:25:32.929Z,28.50
2017-09-02T11:27:58.957Z,29.00
2017-09-02T11:30:24.985Z,29.40
2017-09-02T11:32:51.040Z,29.90
2017-09-02T11:35:17.104Z,30.60
2017-09-02T11:37:43.153Z,31.10
2017-09-02T11:40:09.201Z,31.20
2017-09-02T11:42:35.224Z,31.20
2017-09-02T11:45:01.266Z,31.10
2017-09-02T11:47:27.308Z,31.30
2017-09-02T11:49:53.718Z,31.50
2017-09-02T11:52:19.825Z,31.00
2017-09-02T11:54:48.356Z,30.30
2017-09-02T11:57:14.482Z,30.00
2017-09-02T11:59:40.533Z,30.30
2017-09-02T12:02:06.566Z,30.90
2017-09-02T12:04:32.593Z,31.40
2017-09-02T12:06:58.661Z,32.00
2017-09-02T12:09:24.726Z,32.30
2017-09-02T12:11:50.769Z,32.00
2017-09-02T12:14:16.799Z,32.40
2017-09-02T12:16:42.877Z,32.70
2017-09-02T12:19:08.909Z,32.90
2017-09-02T12:21:34.952Z,33.10
2017-09-02T12:24:01.256Z,33.20
2017-09-02T12:26:27.645Z,33.50
2017-09-02T12:28:53.663Z,33.40
2017-09-02T12:31:19.714Z,33.60
2017-09-02T12:33:45.719Z,33.70
2017-09-02T12:36:11.757Z,33.70
2017-09-02T12:38:37.759Z,33.70
2017-09-02T12:41:03.765Z,34.00
2017-09-02T12:43:29.780Z,33.80
2017-09-02T12:45:55.810Z,34.10
2017-09-02T12:48:21.856Z,34.10
2017-09-02T12:50:47.858Z,34.00
2017-09-02T12:53:13.913Z,34.20
2017-09-02T12:55:39.920Z,34.40
2017-09-02T12:58:05.930Z,34.60
2017-09-02T13:00:31.954Z,34.30
2017-09-02T13:02:57.994Z,33.90
2017-09-02T13:05:24.038Z,33.40
2017-09-02T13:07:50.247Z,33.00
2017-09-02T13:10:16.245Z,32.80
2017-09-02T13:12:42.277Z,32.10
2017-09-02T13:15:08.278Z,31.50
2017-09-02T13:17:34.290Z,30.90
2017-09-02T13:20:00.315Z,30.20
2017-09-02T13:22:26.346Z,29.70
2017-09-02T13:24:52.385Z,29.40
2017-09-02T13:27:18.420Z,29.20
2017-09-02T13:29:44.457Z,28.80
2017-09-02T13:32:11.406Z,28.80
2017-09-02T13:34:37.681Z,28.80
2017-09-02T13:37:03.705Z,29.20
2017-09-02T13:39:29.741Z,29.40
2017-09-02T13:41:55.759Z,29.50
2017-09-02T13:44:21.785Z,29.90
2017-09-02T13:46:50.260Z,29.90
2017-09-02T13:49:16.545Z,30.10
2017-09-02T13:51:45.282Z,30.70
2017-09-02T13:54:18.899Z,31.10
2017-09-02T13:56:46.133Z,31.20
2017-09-02T13:59:12.690Z,30.50
2017-09-02T14:01:38.715Z,29.80
2017-09-02T14:04:04.740Z,29.40
2017-09-02T14:06:31.311Z,29.10
2017-09-02T14:08:57.336Z,29.90
2017-09-02T14:11:23.351Z,30.50
2017-09-02T14:13:49.357Z,31.30
2017-09-02T14:16:15.385Z,31.80
2017-09-02T14:18:41.382Z,31.90
2017-09-02T14:21:07.424Z,32.00
2017-09-02T14:23:33.425Z,32.50
2017-09-02T14:25:59.418Z,32.50
2017-09-02T14:28:25.437Z,31.20
2017-09-02T14:30:51.609Z,29.80
2017-09-02T14:33:17.629Z,28.80
2017-09-02T14:35:43.629Z,29.10
2017-09-02T14:38:09.641Z,30.00
2017-09-02T14:40:35.638Z,30.70
2017-09-02T14:43:01.671Z,30.50
2017-09-02T14:45:27.693Z,29.20
2017-09-02T14:47:53.704Z,28.50
2017-09-02T14:50:19.697Z,28.80
2017-09-02T14:52:45.763Z,29.20
2017-09-02T14:55:11.773Z,29.80
2017-09-02T14:57:37.797Z,30.50
2017-09-02T15:00:03.823Z,31.40
2017-09-02T15:02:29.813Z,32.00
2017-09-02T15:04:55.821Z,32.60
2017-09-02T15:07:21.825Z,32.80
2017-09-02T15:09:47.833Z,33.20
2017-09-02T15:12:13.861Z,33.00
2017-09-02T15:14:39.920Z,32.60
2017-09-02T15:17:05.936Z,32.90
2017-09-02T15:19:31.968Z,32.40
2017-09-02T15:21:57.994Z,31.10
2017-09-02T15:24:24.027Z,30.30
2017-09-02T15:26:50.044Z,29.20
2017-09-02T15:29:16.050Z,28.30
2017-09-02T15:31:42.045Z,27.80
2017-09-02T15:34:08.048Z,27.00
2017-09-02T15:36:34.057Z,26.60
2017-09-02T15:39:00.841Z,26.50
2017-09-02T15:41:26.853Z,26.50
2017-09-02T15:43:52.859Z,26.70
2017-09-02T15:46:18.903Z,26.50
2017-09-02T15:48:44.941Z,27.10
2017-09-02T15:51:10.954Z,28.10
2017-09-02T15:53:36.957Z,28.60
2017-09-02T15:56:02.953Z,29.00
2017-09-02T15:58:28.966Z,29.50
2017-09-02T16:00:54.991Z,29.80
2017-09-02T16:03:20.999Z,29.80
2017-09-02T16:05:47.009Z,29.80
2017-09-02T16:08:13.005Z,29.80
2017-09-02T16:10:39.024Z,29.80
2017-09-02T16:13:05.033Z,29.80
2017-09-02T16:15:31.047Z,29.80
2017-09-02T16:17:57.050Z,29.10
2017-09-02T16:20:23.057Z,28.00
2017-09-02T16:22:49.079Z,27.00
2017-09-02T16:25:15.099Z,25.90
2017-09-02T16:27:41.111Z,25.10
2017-09-02T16:30:07.162Z,24.50
2017-09-02T16:32:33.175Z,23.70
2017-09-02T16:34:59.174Z,23.20
2017-09-02T16:37:25.205Z,22.80
2017-09-02T16:39:51.201Z,22.40
2017-09-02T16:42:17.222Z,22.20
2017-09-02T16:44:43.229Z,21.90
2017-09-02T16:47:09.266Z,21.50
2017-09-02T16:49:35.274Z,21.50
2017-09-02T16:52:01.313Z,21.30
2017-09-02T16:54:27.344Z,21.00
2017-09-02T16:56:53.374Z,20.70
2017-09-02T16:59:19.427Z,20.50
2017-09-02T17:01:45.486Z,20.30
2017-09-02T17:04:11.533Z,20.20
2017-09-02T17:06:37.562Z,20.20
2017-09-02T17:09:03.606Z,19.90
2017-09-02T17:11:29.623Z,19.90
2017-09-02T17:13:55.650Z,19.80
2017-09-02T17:16:21.689Z,19.50
2017-09-02T17:18:47.717Z,19.50
2017-09-02T17:21:13.736Z,19.40
2017-09-02T17:23:39.767Z,19.40
2017-09-02T17:26:05.781Z,19.30
2017-09-02T17:28:31.804Z,19.40
2017-09-02T17:30:57.833Z,19.40
2017-09-02T17:33:23.851Z,19.50
2017-09-02T17:35:49.880Z,19.40
2017-09-02T17:38:16.619Z,19.20
2017-09-02T17:40:42.660Z,19.20
2017-09-02T17:43:08.668Z,19.10
2017-09-02T17:45:34.711Z,19.00
2017-09-02T17:48:00.734Z,18.80
2017-09-02T17:50:26.788Z,18.70
2017-09-02T17:52:52.785Z,18.60
2017-09-02T17:55:18.803Z,18.50
2017-09-02T17:57:44.861Z,18.40
2017-09-02T18:00:10.912Z,18.30
2017-09-02T18:02:36.943Z,18.20
2017-09-02T18:05:02.961Z,18.10
2017-09-02T18:07:28.984Z,18.00
2017-09-02T18:09:54.985Z,17.90
2017-09-02T18:12:20.994Z,17.70
2017-09-02T18:14:47.018Z,17.60
2017-09-02T18:17:13.042Z,17.50
2017-09-02T18:19:39.072Z,17.40
2017-09-02T18:22:05.101Z,17.40
2017-09-02T18:24:31.126Z,17.40
2017-09-02T18:26:57.177Z,17.20
2017-09-02T18:29:23.253Z,17.20
2017-09-02T18:31:49.277Z,17.10
2017-09-02T18:34:15.301Z,17.10
2017-09-02T18:36:42.097Z,16.90
2017-09-02T18:39:08.140Z,16.90
2017-09-02T18:41:34.241Z,16.80
2017-09-02T18:44:00.274Z,16.80
2017-09-02T18:46:26.333Z,16.60
2017-09-02T18:48:52.380Z,16.60
2017-09-02T18:51:18.428Z,16.70
2017-09-02T18:53:44.473Z,16.60
2017-09-02T18:56:10.485Z,16.50
2017-09-02T18:58:36.561Z,16.40
2017-09-02T19:01:02.605Z,16.40
2017-09-02T19:03:28.645Z,16.40
2017-09-02T19:05:54.763Z,16.30
2017-09-02T19:08:20.818Z,16.20
2017-09-02T19:10:46.831Z,16.30
2017-09-02T19:13:12.841Z,16.20
2017-09-02T19:15:38.854Z,16.20
2017-09-02T19:18:04.869Z,16.10
2017-09-02T19:22:56.836Z,16.00
2017-09-02T19:25:22.885Z,16.00
2017-09-02T19:27:48.886Z,16.00
2017-09-02T19:30:14.921Z,16.00
2017-09-02T19:32:40.943Z,15.90
2017-09-02T19:35:06.985Z,15.90
2017-09-02T19:37:33.018Z,15.90
2017-09-02T19:39:59.081Z,15.90
2017-09-02T19:42:25.105Z,15.80
2017-09-02T19:44:51.135Z,15.80
2017-09-02T19:47:17.157Z,15.70
2017-09-02T19:49:43.173Z,15.70
2017-09-02T19:52:09.203Z,15.60
2017-09-02T19:54:35.246Z,15.60
2017-09-02T19:57:01.305Z,15.50
2017-09-02T19:59:27.344Z,15.40
2017-09-02T20:01:53.397Z,15.40
2017-09-02T20:04:19.450Z,15.40
2017-09-02T20:06:45.541Z,15.30
2017-09-02T20:09:11.630Z,15.30
2017-09-02T20:11:37.710Z,15.30
2017-09-02T20:14:03.761Z,15.30
2017-09-02T20:16:29.828Z,15.30
2017-09-02T20:18:55.896Z,15.30
2017-09-02T20:21:21.941Z,15.20
2017-09-02T20:23:47.998Z,15.10
2017-09-02T20:26:14.058Z,15.00
2017-09-02T20:28:40.117Z,15.00
2017-09-02T20:31:06.163Z,15.00
2017-09-02T20:33:32.231Z,14.90
2017-09-02T20:35:58.267Z,15.00
2017-09-02T20:38:24.312Z,14.90
2017-09-02T20:40:50.397Z,14.90
2017-09-02T20:43:16.524Z,14.90
2017-09-02T20:45:42.569Z,14.80
2017-09-02T20:48:08.635Z,14.80
2017-09-02T20:50:34.706Z,14.80
2017-09-02T20:53:00.754Z,14.90
2017-09-02T20:55:26.826Z,14.90
2017-09-02T20:57:52.853Z,14.80
2017-09-02T21:00:18.938Z,14.70
2017-09-02T21:02:45.025Z,14.60
2017-09-02T21:05:11.111Z,14.60
2017-09-02T21:07:37.175Z,14.60
2017-09-02T21:10:03.245Z,14.50
2017-09-02T21:12:29.315Z,14.50
2017-09-02T21:14:55.409Z,14.40
2017-09-02T21:17:21.438Z,14.50
2017-09-02T21:19:47.536Z,14.50
2017-09-02T21:22:13.630Z,14.50
2017-09-02T21:24:39.680Z,14.50
2017-09-02T21:27:05.727Z,14.40
2017-09-02T21:29:31.771Z,14.40
2017-09-02T21:31:57.847Z,14.40
2017-09-02T21:34:23.885Z,14.30
2017-09-02T21:36:49.929Z,14.30
2017-09-02T21:39:15.964Z,14.20
2017-09-02T21:41:42.009Z,14.30
2017-09-02T21:44:08.057Z,14.20
2017-09-02T21:46:34.113Z,14.20
2017-09-02T21:49:00.190Z,14.20
2017-09-02T21:51:26.214Z,14.20
2017-09-02T21:53:52.257Z,14.20
2017-09-02T21:56:18.312Z,14.20
2017-09-02T21:58:44.364Z,14.10
2017-09-02T22:01:10.399Z,14.10
2017-09-02T22:03:36.461Z,14.10
2017-09-02T22:06:02.489Z,14.10
2017-09-02T22:08:28.515Z,14.00
2017-09-02T22:10:54.548Z,14.00
2017-09-02T22:13:20.617Z,14.00
2017-09-02T22:15:46.654Z,13.90
2017-09-02T22:18:12.700Z,13.90
2017-09-02T22:20:38.754Z,13.90
2017-09-02T22:23:04.809Z,13.90
2017-09-02T22:25:30.892Z,13.90
2017-09-02T22:27:56.949Z,13.80
2017-09-02T22:30:22.988Z,13.90
2017-09-02T22:32:49.029Z,13.80
2017-09-02T22:35:15.065Z,13.80
2017-09-02T22:37:41.089Z,13.70
2017-09-02T22:40:07.126Z,13.70
2017-09-02T22:42:33.167Z,13.70
2017-09-02T22:44:59.190Z,13.70
2017-09-02T22:47:25.229Z,13.70
2017-09-02T22:49:51.280Z,13.70
2017-09-02T22:52:17.322Z,13.60
2017-09-02T22:54:43.342Z,13.50
2017-09-02T22:57:09.390Z,13.50
2017-09-02T22:59:35.401Z,13.50
2017-09-02T23:02:01.433Z,13.40
2017-09-02T23:04:27.470Z,13.40
2017-09-02T23:06:53.603Z,13.40
2017-09-02T23:09:19.652Z,13.40
2017-09-02T23:11:45.695Z,13.40
2017-09-02T23:14:11.754Z,13.40
2017-09-02T23:16:37.797Z,13.40
2017-09-02T23:19:03.830Z,13.30
2017-09-02T23:21:29.853Z,13.30
2017-09-02T23:23:55.873Z,13.30
2017-09-02T23:26:21.905Z,13.30
2017-09-02T23:28:47.933Z,13.30
2017-09-02T23:31:13.965Z,13.30
2017-09-02T23:33:40.021Z,13.30
2017-09-02T23:36:06.092Z,13.20
2017-09-02T23:38:32.148Z,13.20
2017-09-02T23:40:58.184Z,13.30
2017-09-02T23:43:24.221Z,13.30
2017-09-02T23:45:50.277Z,13.20
2017-09-02T23:48:16.321Z,13.30
2017-09-02T23:50:42.358Z,13.20
2017-09-02T23:53:08.397Z,13.20
2017-09-02T23:55:34.435Z,13.20
2017-09-02T23:58:00.474Z,13.20
